sensor_id;sensor_type;location;lat;lon;timestamp;P1;durP1;ratioP1;P2;durP2;ratioP2
20896;SDS011;10608;42.600;23.398;2023-04-29T00:00:19;10.23;;;9.83;;
20896;SDS011;10608;42.600;23.398;2023-04-29T00:02:44;10.20;;;9.80;;
20896;SDS011;10608;42.600;23.398;2023-04-29T00:05:10;12.90;;;12.40;;
20896;SDS011;10608;42.600;23.398;2023-04-29T00:07:35;10.40;;;10.00;;
20896;SDS011;10608;42.600;23.398;2023-04-29T00:10:00;11.03;;;10.63;;
20896;SDS011;10608;42.600;23.398;2023-04-29T00:12:26;13.20;;;12.70;;
20896;SDS011;10608;42.600;23.398;2023-04-29T00:14:52;16.27;;;15.67;;
20896;SDS011;10608;42.600;23.398;2023-04-29T00:17:17;12.43;;;11.93;;
20896;SDS011;10608;42.600;23.398;2023-04-29T00:19:42;12.73;;;12.23;;
20896;SDS011;10608;42.600;23.398;2023-04-29T00:22:08;13.70;;;12.93;;
20896;SDS011;10608;42.600;23.398;2023-04-29T00:24:33;11.90;;;11.43;;
20896;SDS011;10608;42.600;23.398;2023-04-29T00:26:58;12.67;;;12.17;;
20896;SDS011;10608;42.600;23.398;2023-04-29T00:29:26;11.90;;;11.50;;
20896;SDS011;10608;42.600;23.398;2023-04-29T00:31:51;11.57;;;11.17;;
20896;SDS011;10608;42.600;23.398;2023-04-29T00:34:16;11.07;;;10.67;;
20896;SDS011;10608;42.600;23.398;2023-04-29T00:36:42;12.70;;;12.03;;
20896;SDS011;10608;42.600;23.398;2023-04-29T00:39:07;11.57;;;11.17;;
20896;SDS011;10608;42.600;23.398;2023-04-29T00:41:32;10.57;;;10.17;;
20896;SDS011;10608;42.600;23.398;2023-04-29T00:43:57;11.07;;;10.67;;
20896;SDS011;10608;42.600;23.398;2023-04-29T00:46:23;12.47;;;11.97;;
20896;SDS011;10608;42.600;23.398;2023-04-29T00:48:48;12.63;;;12.13;;
20896;SDS011;10608;42.600;23.398;2023-04-29T00:51:14;12.60;;;12.10;;
20896;SDS011;10608;42.600;23.398;2023-04-29T00:53:41;11.87;;;11.37;;
20896;SDS011;10608;42.600;23.398;2023-04-29T00:56:06;11.13;;;10.73;;
20896;SDS011;10608;42.600;23.398;2023-04-29T00:58:32;11.30;;;10.90;;
20896;SDS011;10608;42.600;23.398;2023-04-29T01:01:02;11.37;;;10.97;;
20896;SDS011;10608;42.600;23.398;2023-04-29T01:03:28;11.10;;;10.70;;
20896;SDS011;10608;42.600;23.398;2023-04-29T01:05:57;10.37;;;9.97;;
20896;SDS011;10608;42.600;23.398;2023-04-29T01:13:36;11.20;;;10.80;;
20896;SDS011;10608;42.600;23.398;2023-04-29T01:16:07;11.37;;;10.97;;
20896;SDS011;10608;42.600;23.398;2023-04-29T01:18:42;14.27;;;13.73;;
20896;SDS011;10608;42.600;23.398;2023-04-29T01:21:07;14.37;;;13.80;;
20896;SDS011;10608;42.600;23.398;2023-04-29T01:23:33;13.50;;;13.00;;
20896;SDS011;10608;42.600;23.398;2023-04-29T01:25:58;11.90;;;11.43;;
20896;SDS011;10608;42.600;23.398;2023-04-29T01:31:27;12.70;;;12.20;;
20896;SDS011;10608;42.600;23.398;2023-04-29T01:39:19;13.20;;;12.70;;
20896;SDS011;10608;42.600;23.398;2023-04-29T01:44:17;11.63;;;11.23;;
20896;SDS011;10608;42.600;23.398;2023-04-29T01:46:50;10.20;;;9.80;;
20896;SDS011;10608;42.600;23.398;2023-04-29T01:49:26;10.90;;;10.50;;
20896;SDS011;10608;42.600;23.398;2023-04-29T01:51:51;11.30;;;10.90;;
20896;SDS011;10608;42.600;23.398;2023-04-29T01:54:16;12.63;;;12.13;;
20896;SDS011;10608;42.600;23.398;2023-04-29T01:56:42;13.00;;;12.50;;
20896;SDS011;10608;42.600;23.398;2023-04-29T01:59:07;14.80;;;14.20;;
20896;SDS011;10608;42.600;23.398;2023-04-29T02:01:33;13.87;;;13.37;;
20896;SDS011;10608;42.600;23.398;2023-04-29T02:03:58;13.93;;;13.43;;
20896;SDS011;10608;42.600;23.398;2023-04-29T02:06:23;13.73;;;13.23;;
20896;SDS011;10608;42.600;23.398;2023-04-29T02:08:49;13.23;;;12.73;;
20896;SDS011;10608;42.600;23.398;2023-04-29T02:11:14;12.37;;;11.87;;
20896;SDS011;10608;42.600;23.398;2023-04-29T02:13:39;13.70;;;13.20;;
20896;SDS011;10608;42.600;23.398;2023-04-29T02:16:08;16.93;;;16.27;;
20896;SDS011;10608;42.600;23.398;2023-04-29T02:18:33;18.43;;;17.73;;
20896;SDS011;10608;42.600;23.398;2023-04-29T02:20:59;14.73;;;14.13;;
20896;SDS011;10608;42.600;23.398;2023-04-29T02:23:25;14.67;;;13.33;;
20896;SDS011;10608;42.600;23.398;2023-04-29T02:25:50;13.37;;;12.77;;
20896;SDS011;10608;42.600;23.398;2023-04-29T02:28:15;14.80;;;14.17;;
20896;SDS011;10608;42.600;23.398;2023-04-29T02:30:41;16.33;;;15.73;;
20896;SDS011;10608;42.600;23.398;2023-04-29T02:33:07;17.33;;;16.67;;
20896;SDS011;10608;42.600;23.398;2023-04-29T02:35:32;16.63;;;16.00;;
20896;SDS011;10608;42.600;23.398;2023-04-29T02:37:57;14.40;;;13.83;;
20896;SDS011;10608;42.600;23.398;2023-04-29T02:40:22;15.53;;;14.93;;
20896;SDS011;10608;42.600;23.398;2023-04-29T02:42:49;13.70;;;13.20;;
20896;SDS011;10608;42.600;23.398;2023-04-29T02:45:14;13.30;;;12.70;;
20896;SDS011;10608;42.600;23.398;2023-04-29T02:47:40;12.70;;;12.20;;
20896;SDS011;10608;42.600;23.398;2023-04-29T02:50:05;16.83;;;16.17;;
20896;SDS011;10608;42.600;23.398;2023-04-29T02:52:31;19.97;;;19.17;;
20896;SDS011;10608;42.600;23.398;2023-04-29T02:54:56;20.90;;;20.07;;
20896;SDS011;10608;42.600;23.398;2023-04-29T02:57:21;18.67;;;17.93;;
20896;SDS011;10608;42.600;23.398;2023-04-29T02:59:47;18.00;;;17.30;;
20896;SDS011;10608;42.600;23.398;2023-04-29T03:02:12;15.07;;;14.47;;
20896;SDS011;10608;42.600;23.398;2023-04-29T03:04:37;12.70;;;12.20;;
20896;SDS011;10608;42.600;23.398;2023-04-29T03:07:04;12.87;;;12.37;;
20896;SDS011;10608;42.600;23.398;2023-04-29T03:09:29;14.07;;;13.53;;
20896;SDS011;10608;42.600;23.398;2023-04-29T03:11:54;16.10;;;15.40;;
20896;SDS011;10608;42.600;23.398;2023-04-29T03:14:20;14.43;;;13.83;;
20896;SDS011;10608;42.600;23.398;2023-04-29T03:16:45;16.00;;;15.40;;
20896;SDS011;10608;42.600;23.398;2023-04-29T03:19:10;13.50;;;13.00;;
20896;SDS011;10608;42.600;23.398;2023-04-29T03:21:36;16.50;;;15.90;;
20896;SDS011;10608;42.600;23.398;2023-04-29T03:24:01;17.27;;;16.57;;
20896;SDS011;10608;42.600;23.398;2023-04-29T03:26:26;15.77;;;15.10;;
20896;SDS011;10608;42.600;23.398;2023-04-29T03:28:51;15.10;;;14.50;;
20896;SDS011;10608;42.600;23.398;2023-04-29T03:31:17;12.87;;;12.37;;
20896;SDS011;10608;42.600;23.398;2023-04-29T03:33:44;13.57;;;12.97;;
20896;SDS011;10608;42.600;23.398;2023-04-29T03:36:10;12.00;;;11.50;;
20896;SDS011;10608;42.600;23.398;2023-04-29T03:38:35;11.27;;;10.87;;
20896;SDS011;10608;42.600;23.398;2023-04-29T03:41:00;12.23;;;11.73;;
20896;SDS011;10608;42.600;23.398;2023-04-29T03:43:26;11.23;;;10.83;;
20896;SDS011;10608;42.600;23.398;2023-04-29T03:45:51;11.13;;;10.73;;
20896;SDS011;10608;42.600;23.398;2023-04-29T03:48:17;13.27;;;12.67;;
20896;SDS011;10608;42.600;23.398;2023-04-29T03:50:42;15.37;;;14.57;;
20896;SDS011;10608;42.600;23.398;2023-04-29T03:53:07;12.47;;;11.97;;
20896;SDS011;10608;42.600;23.398;2023-04-29T03:55:33;12.53;;;12.03;;
20896;SDS011;10608;42.600;23.398;2023-04-29T03:57:58;13.27;;;12.77;;
20896;SDS011;10608;42.600;23.398;2023-04-29T04:00:23;12.37;;;11.87;;
20896;SDS011;10608;42.600;23.398;2023-04-29T04:02:50;11.57;;;11.17;;
20896;SDS011;10608;42.600;23.398;2023-04-29T04:05:15;12.10;;;11.60;;
20896;SDS011;10608;42.600;23.398;2023-04-29T04:07:43;12.77;;;12.17;;
20896;SDS011;10608;42.600;23.398;2023-04-29T04:10:08;11.50;;;11.10;;
20896;SDS011;10608;42.600;23.398;2023-04-29T04:12:34;12.67;;;11.87;;
20896;SDS011;10608;42.600;23.398;2023-04-29T04:14:59;12.57;;;12.07;;
20896;SDS011;10608;42.600;23.398;2023-04-29T04:17:24;12.60;;;12.10;;
20896;SDS011;10608;42.600;23.398;2023-04-29T04:19:49;13.90;;;13.40;;
20896;SDS011;10608;42.600;23.398;2023-04-29T04:22:15;13.90;;;13.40;;
20896;SDS011;10608;42.600;23.398;2023-04-29T04:24:41;15.70;;;15.10;;
20896;SDS011;10608;42.600;23.398;2023-04-29T04:27:06;16.40;;;15.77;;
20896;SDS011;10608;42.600;23.398;2023-04-29T04:29:31;15.37;;;14.77;;
20896;SDS011;10608;42.600;23.398;2023-04-29T04:31:56;14.77;;;14.17;;
20896;SDS011;10608;42.600;23.398;2023-04-29T04:34:22;13.87;;;13.37;;
20896;SDS011;10608;42.600;23.398;2023-04-29T04:36:47;18.03;;;17.33;;
20896;SDS011;10608;42.600;23.398;2023-04-29T04:39:12;20.33;;;19.53;;
20896;SDS011;10608;42.600;23.398;2023-04-29T04:41:37;17.80;;;17.10;;
20896;SDS011;10608;42.600;23.398;2023-04-29T04:44:03;18.93;;;18.13;;
20896;SDS011;10608;42.600;23.398;2023-04-29T04:46:28;21.73;;;20.50;;
20896;SDS011;10608;42.600;23.398;2023-04-29T04:48:53;12.77;;;12.27;;
20896;SDS011;10608;42.600;23.398;2023-04-29T04:51:19;17.57;;;16.87;;
20896;SDS011;10608;42.600;23.398;2023-04-29T04:53:45;17.27;;;16.57;;
20896;SDS011;10608;42.600;23.398;2023-04-29T04:56:10;15.73;;;15.13;;
20896;SDS011;10608;42.600;23.398;2023-04-29T04:58:35;15.00;;;14.40;;
20896;SDS011;10608;42.600;23.398;2023-04-29T05:01:01;18.93;;;18.17;;
20896;SDS011;10608;42.600;23.398;2023-04-29T05:03:26;13.70;;;13.10;;
20896;SDS011;10608;42.600;23.398;2023-04-29T05:05:52;16.23;;;15.60;;
20896;SDS011;10608;42.600;23.398;2023-04-29T05:08:17;17.83;;;17.13;;
20896;SDS011;10608;42.600;23.398;2023-04-29T05:10:42;22.10;;;21.07;;
20896;SDS011;10608;42.600;23.398;2023-04-29T05:13:08;16.17;;;15.57;;
20896;SDS011;10608;42.600;23.398;2023-04-29T05:15:33;16.83;;;16.17;;
20896;SDS011;10608;42.600;23.398;2023-04-29T05:17:59;12.73;;;11.70;;
20896;SDS011;10608;42.600;23.398;2023-04-29T05:20:24;11.83;;;11.23;;
20896;SDS011;10608;42.600;23.398;2023-04-29T05:22:50;16.00;;;15.40;;
20896;SDS011;10608;42.600;23.398;2023-04-29T05:25:15;11.73;;;11.23;;
20896;SDS011;10608;42.600;23.398;2023-04-29T05:27:40;14.40;;;13.70;;
20896;SDS011;10608;42.600;23.398;2023-04-29T05:30:05;14.90;;;14.30;;
20896;SDS011;10608;42.600;23.398;2023-04-29T05:32:31;15.23;;;14.63;;
20896;SDS011;10608;42.600;23.398;2023-04-29T05:34:56;12.90;;;12.40;;
20896;SDS011;10608;42.600;23.398;2023-04-29T05:37:21;13.30;;;12.80;;
20896;SDS011;10608;42.600;23.398;2023-04-29T05:39:47;13.33;;;12.43;;
20896;SDS011;10608;42.600;23.398;2023-04-29T05:42:12;12.13;;;11.63;;
20896;SDS011;10608;42.600;23.398;2023-04-29T05:44:37;15.40;;;14.80;;
20896;SDS011;10608;42.600;23.398;2023-04-29T05:47:03;15.27;;;14.60;;
20896;SDS011;10608;42.600;23.398;2023-04-29T05:49:28;12.40;;;11.87;;
20896;SDS011;10608;42.600;23.398;2023-04-29T05:51:54;11.60;;;11.20;;
20896;SDS011;10608;42.600;23.398;2023-04-29T05:54:19;18.40;;;17.63;;
20896;SDS011;10608;42.600;23.398;2023-04-29T05:56:45;11.73;;;11.23;;
20896;SDS011;10608;42.600;23.398;2023-04-29T05:59:10;17.57;;;16.87;;
20896;SDS011;10608;42.600;23.398;2023-04-29T06:01:35;10.70;;;10.30;;
20896;SDS011;10608;42.600;23.398;2023-04-29T06:04:01;12.13;;;11.63;;
20896;SDS011;10608;42.600;23.398;2023-04-29T06:06:26;11.90;;;11.30;;
20896;SDS011;10608;42.600;23.398;2023-04-29T06:08:51;14.40;;;13.80;;
20896;SDS011;10608;42.600;23.398;2023-04-29T06:11:17;21.47;;;20.60;;
20896;SDS011;10608;42.600;23.398;2023-04-29T06:13:42;17.23;;;16.00;;
20896;SDS011;10608;42.600;23.398;2023-04-29T06:16:08;29.63;;;28.43;;
20896;SDS011;10608;42.600;23.398;2023-04-29T06:18:34;71.50;;;68.63;;
20896;SDS011;10608;42.600;23.398;2023-04-29T06:20:59;28.93;;;27.73;;
20896;SDS011;10608;42.600;23.398;2023-04-29T06:23:25;43.80;;;42.03;;
20896;SDS011;10608;42.600;23.398;2023-04-29T06:25:50;40.23;;;38.63;;
20896;SDS011;10608;42.600;23.398;2023-04-29T06:28:15;20.27;;;19.40;;
20896;SDS011;10608;42.600;23.398;2023-04-29T06:30:41;22.37;;;21.47;;
20896;SDS011;10608;42.600;23.398;2023-04-29T06:33:07;15.90;;;15.27;;
20896;SDS011;10608;42.600;23.398;2023-04-29T06:35:32;17.27;;;16.53;;
20896;SDS011;10608;42.600;23.398;2023-04-29T06:37:57;27.50;;;26.33;;
20896;SDS011;10608;42.600;23.398;2023-04-29T06:40:22;21.93;;;20.50;;
20896;SDS011;10608;42.600;23.398;2023-04-29T06:42:48;25.33;;;24.30;;
20896;SDS011;10608;42.600;23.398;2023-04-29T06:45:13;20.20;;;19.40;;
20896;SDS011;10608;42.600;23.398;2023-04-29T06:47:38;16.03;;;15.40;;
20896;SDS011;10608;42.600;23.398;2023-04-29T06:50:04;24.07;;;23.07;;
20896;SDS011;10608;42.600;23.398;2023-04-29T06:52:30;19.83;;;18.90;;
20896;SDS011;10608;42.600;23.398;2023-04-29T06:54:56;17.33;;;16.50;;
20896;SDS011;10608;42.600;23.398;2023-04-29T06:57:21;21.63;;;20.77;;
20896;SDS011;10608;42.600;23.398;2023-04-29T06:59:46;23.33;;;22.27;;
20896;SDS011;10608;42.600;23.398;2023-04-29T07:02:12;24.90;;;23.90;;
20896;SDS011;10608;42.600;23.398;2023-04-29T07:04:37;20.90;;;19.97;;
20896;SDS011;10608;42.600;23.398;2023-04-29T07:07:03;22.47;;;21.47;;
20896;SDS011;10608;42.600;23.398;2023-04-29T07:09:31;19.73;;;18.93;;
20896;SDS011;10608;42.600;23.398;2023-04-29T07:11:56;15.60;;;14.90;;
20896;SDS011;10608;42.600;23.398;2023-04-29T07:14:22;14.23;;;13.63;;
20896;SDS011;10608;42.600;23.398;2023-04-29T07:16:51;21.37;;;20.23;;
20896;SDS011;10608;42.600;23.398;2023-04-29T07:19:17;20.87;;;20.03;;
20896;SDS011;10608;42.600;23.398;2023-04-29T07:21:42;17.47;;;16.67;;
20896;SDS011;10608;42.600;23.398;2023-04-29T07:24:07;32.57;;;31.20;;
20896;SDS011;10608;42.600;23.398;2023-04-29T07:26:32;25.03;;;24.00;;
20896;SDS011;10608;42.600;23.398;2023-04-29T07:28:57;20.03;;;19.00;;
20896;SDS011;10608;42.600;23.398;2023-04-29T07:31:23;19.50;;;18.70;;
20896;SDS011;10608;42.600;23.398;2023-04-29T07:33:48;25.17;;;24.10;;
20896;SDS011;10608;42.600;23.398;2023-04-29T07:36:13;14.53;;;13.93;;
20896;SDS011;10608;42.600;23.398;2023-04-29T07:38:38;37.97;;;36.33;;
20896;SDS011;10608;42.600;23.398;2023-04-29T07:41:04;33.47;;;32.07;;
20896;SDS011;10608;42.600;23.398;2023-04-29T07:43:29;27.90;;;26.73;;
20896;SDS011;10608;42.600;23.398;2023-04-29T07:45:55;12.87;;;12.33;;
20896;SDS011;10608;42.600;23.398;2023-04-29T07:48:20;20.17;;;19.27;;
20896;SDS011;10608;42.600;23.398;2023-04-29T07:50:46;21.33;;;20.43;;
20896;SDS011;10608;42.600;23.398;2023-04-29T07:53:11;26.53;;;25.33;;
20896;SDS011;10608;42.600;23.398;2023-04-29T07:55:37;26.47;;;25.37;;
20896;SDS011;10608;42.600;23.398;2023-04-29T07:58:02;20.93;;;18.93;;
20896;SDS011;10608;42.600;23.398;2023-04-29T08:00:27;11.97;;;11.37;;
20896;SDS011;10608;42.600;23.398;2023-04-29T08:02:53;12.03;;;11.53;;
20896;SDS011;10608;42.600;23.398;2023-04-29T08:05:18;9.93;;;9.53;;
20896;SDS011;10608;42.600;23.398;2023-04-29T08:07:45;9.80;;;9.40;;
20896;SDS011;10608;42.600;23.398;2023-04-29T08:10:10;11.93;;;11.43;;
20896;SDS011;10608;42.600;23.398;2023-04-29T08:12:36;9.67;;;9.07;;
20896;SDS011;10608;42.600;23.398;2023-04-29T08:15:01;11.67;;;11.07;;
20896;SDS011;10608;42.600;23.398;2023-04-29T08:17:26;13.77;;;13.17;;
20896;SDS011;10608;42.600;23.398;2023-04-29T08:19:51;11.07;;;10.63;;
20896;SDS011;10608;42.600;23.398;2023-04-29T08:22:17;8.53;;;8.13;;
20896;SDS011;10608;42.600;23.398;2023-04-29T08:24:42;9.77;;;9.37;;
20896;SDS011;10608;42.600;23.398;2023-04-29T08:27:09;9.67;;;9.27;;
20896;SDS011;10608;42.600;23.398;2023-04-29T08:29:34;11.57;;;11.07;;
20896;SDS011;10608;42.600;23.398;2023-04-29T08:31:59;12.53;;;12.03;;
20896;SDS011;10608;42.600;23.398;2023-04-29T08:34:25;12.77;;;12.17;;
20896;SDS011;10608;42.600;23.398;2023-04-29T08:36:50;10.90;;;10.50;;
20896;SDS011;10608;42.600;23.398;2023-04-29T08:39:16;10.43;;;10.00;;
20896;SDS011;10608;42.600;23.398;2023-04-29T08:41:41;11.77;;;11.20;;
20896;SDS011;10608;42.600;23.398;2023-04-29T08:44:09;11.40;;;10.87;;
20896;SDS011;10608;42.600;23.398;2023-04-29T08:46:34;14.27;;;13.67;;
20896;SDS011;10608;42.600;23.398;2023-04-29T08:49:01;19.77;;;18.97;;
20896;SDS011;10608;42.600;23.398;2023-04-29T08:51:27;21.13;;;20.07;;
20896;SDS011;10608;42.600;23.398;2023-04-29T08:53:53;8.60;;;8.20;;
20896;SDS011;10608;42.600;23.398;2023-04-29T08:56:18;12.40;;;11.80;;
20896;SDS011;10608;42.600;23.398;2023-04-29T08:58:48;23.33;;;22.33;;
20896;SDS011;10608;42.600;23.398;2023-04-29T09:01:15;20.47;;;19.63;;
20896;SDS011;10608;42.600;23.398;2023-04-29T09:06:08;10.60;;;10.20;;
20896;SDS011;10608;42.600;23.398;2023-04-29T09:08:34;13.23;;;12.63;;
20896;SDS011;10608;42.600;23.398;2023-04-29T09:11:00;9.97;;;9.47;;
20896;SDS011;10608;42.600;23.398;2023-04-29T09:13:29;11.97;;;11.47;;
20896;SDS011;10608;42.600;23.398;2023-04-29T09:15:55;11.90;;;11.40;;
20896;SDS011;10608;42.600;23.398;2023-04-29T09:21:14;19.33;;;18.53;;
20896;SDS011;10608;42.600;23.398;2023-04-29T09:23:40;15.43;;;14.83;;
20896;SDS011;10608;42.600;23.398;2023-04-29T09:26:05;34.43;;;32.80;;
20896;SDS011;10608;42.600;23.398;2023-04-29T09:28:30;12.27;;;11.77;;
20896;SDS011;10608;42.600;23.398;2023-04-29T09:30:56;34.97;;;33.53;;
20896;SDS011;10608;42.600;23.398;2023-04-29T09:33:21;24.70;;;23.70;;
20896;SDS011;10608;42.600;23.398;2023-04-29T09:35:46;22.97;;;22.00;;
20896;SDS011;10608;42.600;23.398;2023-04-29T09:38:13;23.70;;;22.70;;
20896;SDS011;10608;42.600;23.398;2023-04-29T09:40:39;24.47;;;23.47;;
20896;SDS011;10608;42.600;23.398;2023-04-29T09:43:17;26.03;;;24.93;;
20896;SDS011;10608;42.600;23.398;2023-04-29T09:45:46;19.93;;;19.13;;
20896;SDS011;10608;42.600;23.398;2023-04-29T09:48:12;13.50;;;12.97;;
20896;SDS011;10608;42.600;23.398;2023-04-29T09:50:39;11.73;;;11.23;;
20896;SDS011;10608;42.600;23.398;2023-04-29T09:53:05;10.90;;;10.50;;
20896;SDS011;10608;42.600;23.398;2023-04-29T09:55:33;12.10;;;11.60;;
20896;SDS011;10608;42.600;23.398;2023-04-29T09:57:58;11.57;;;11.07;;
20896;SDS011;10608;42.600;23.398;2023-04-29T10:00:24;11.90;;;11.27;;
20896;SDS011;10608;42.600;23.398;2023-04-29T10:02:53;14.17;;;13.47;;
20896;SDS011;10608;42.600;23.398;2023-04-29T10:05:20;18.13;;;17.33;;
20896;SDS011;10608;42.600;23.398;2023-04-29T10:07:47;16.43;;;15.67;;
20896;SDS011;10608;42.600;23.398;2023-04-29T10:10:13;13.30;;;12.63;;
20896;SDS011;10608;42.600;23.398;2023-04-29T10:12:39;10.70;;;10.27;;
20896;SDS011;10608;42.600;23.398;2023-04-29T10:17:43;11.77;;;11.27;;
20896;SDS011;10608;42.600;23.398;2023-04-29T10:20:12;13.87;;;13.33;;
20896;SDS011;10608;42.600;23.398;2023-04-29T10:22:45;17.43;;;16.57;;
20896;SDS011;10608;42.600;23.398;2023-04-29T10:25:17;11.10;;;10.60;;
20896;SDS011;10608;42.600;23.398;2023-04-29T10:27:43;21.87;;;20.97;;
20896;SDS011;10608;42.600;23.398;2023-04-29T10:30:15;38.33;;;36.77;;
20896;SDS011;10608;42.600;23.398;2023-04-29T10:32:42;20.73;;;19.83;;
20896;SDS011;10608;42.600;23.398;2023-04-29T10:35:11;17.00;;;16.20;;
20896;SDS011;10608;42.600;23.398;2023-04-29T10:37:37;12.80;;;12.20;;
20896;SDS011;10608;42.600;23.398;2023-04-29T10:50:31;11.97;;;11.47;;
20896;SDS011;10608;42.600;23.398;2023-04-29T10:52:56;17.57;;;16.77;;
20896;SDS011;10608;42.600;23.398;2023-04-29T10:55:23;20.57;;;19.57;;
20896;SDS011;10608;42.600;23.398;2023-04-29T10:57:48;23.67;;;22.53;;
20896;SDS011;10608;42.600;23.398;2023-04-29T11:00:20;28.73;;;27.47;;
20896;SDS011;10608;42.600;23.398;2023-04-29T11:02:46;29.23;;;28.00;;
20896;SDS011;10608;42.600;23.398;2023-04-29T11:05:11;24.87;;;23.83;;
20896;SDS011;10608;42.600;23.398;2023-04-29T11:07:36;20.43;;;19.43;;
20896;SDS011;10608;42.600;23.398;2023-04-29T11:10:02;16.10;;;15.40;;
20896;SDS011;10608;42.600;23.398;2023-04-29T11:12:28;14.80;;;14.20;;
20896;SDS011;10608;42.600;23.398;2023-04-29T11:14:53;27.77;;;26.67;;
20896;SDS011;10608;42.600;23.398;2023-04-29T11:17:25;23.73;;;22.73;;
20896;SDS011;10608;42.600;23.398;2023-04-29T11:19:51;16.30;;;15.60;;
20896;SDS011;10608;42.600;23.398;2023-04-29T11:22:23;16.70;;;16.00;;
20896;SDS011;10608;42.600;23.398;2023-04-29T11:29:55;16.83;;;16.13;;
20896;SDS011;10608;42.600;23.398;2023-04-29T11:32:27;17.37;;;16.67;;
20896;SDS011;10608;42.600;23.398;2023-04-29T11:34:53;19.23;;;18.43;;
20896;SDS011;10608;42.600;23.398;2023-04-29T11:37:22;19.40;;;18.57;;
20896;SDS011;10608;42.600;23.398;2023-04-29T11:39:48;18.23;;;17.37;;
20896;SDS011;10608;42.600;23.398;2023-04-29T11:42:17;30.93;;;29.73;;
20896;SDS011;10608;42.600;23.398;2023-04-29T11:44:43;40.27;;;38.60;;
20896;SDS011;10608;42.600;23.398;2023-04-29T11:47:09;24.17;;;23.17;;
20896;SDS011;10608;42.600;23.398;2023-04-29T11:49:34;28.60;;;27.33;;
20896;SDS011;10608;42.600;23.398;2023-04-29T11:52:01;26.20;;;25.13;;
20896;SDS011;10608;42.600;23.398;2023-04-29T11:54:27;20.00;;;19.10;;
20896;SDS011;10608;42.600;23.398;2023-04-29T11:56:53;13.17;;;12.27;;
20896;SDS011;10608;42.600;23.398;2023-04-29T11:59:19;13.13;;;12.53;;
20896;SDS011;10608;42.600;23.398;2023-04-29T12:01:45;15.77;;;15.17;;
20896;SDS011;10608;42.600;23.398;2023-04-29T12:04:10;16.87;;;16.10;;
20896;SDS011;10608;42.600;23.398;2023-04-29T12:06:35;16.80;;;15.90;;
20896;SDS011;10608;42.600;23.398;2023-04-29T12:09:01;16.23;;;15.53;;
20896;SDS011;10608;42.600;23.398;2023-04-29T12:11:28;16.23;;;15.50;;
20896;SDS011;10608;42.600;23.398;2023-04-29T12:13:53;11.27;;;10.80;;
20896;SDS011;10608;42.600;23.398;2023-04-29T12:16:19;9.03;;;8.70;;
20896;SDS011;10608;42.600;23.398;2023-04-29T12:18:44;10.37;;;9.97;;
20896;SDS011;10608;42.600;23.398;2023-04-29T12:21:09;10.03;;;9.63;;
20896;SDS011;10608;42.600;23.398;2023-04-29T12:23:35;11.60;;;11.13;;
20896;SDS011;10608;42.600;23.398;2023-04-29T12:26:00;14.40;;;13.80;;
20896;SDS011;10608;42.600;23.398;2023-04-29T12:28:26;15.07;;;14.47;;
20896;SDS011;10608;42.600;23.398;2023-04-29T12:30:52;13.77;;;13.27;;
20896;SDS011;10608;42.600;23.398;2023-04-29T12:33:21;12.67;;;12.17;;
20896;SDS011;10608;42.600;23.398;2023-04-29T12:35:47;11.13;;;10.73;;
20896;SDS011;10608;42.600;23.398;2023-04-29T12:41:04;11.87;;;11.37;;
20896;SDS011;10608;42.600;23.398;2023-04-29T12:43:31;16.80;;;16.10;;
20896;SDS011;10608;42.600;23.398;2023-04-29T12:46:06;23.67;;;22.67;;
20896;SDS011;10608;42.600;23.398;2023-04-29T12:48:33;15.90;;;15.17;;
20896;SDS011;10608;42.600;23.398;2023-04-29T12:50:58;27.13;;;26.00;;
20896;SDS011;10608;42.600;23.398;2023-04-29T12:53:24;52.60;;;50.43;;
20896;SDS011;10608;42.600;23.398;2023-04-29T12:55:50;43.40;;;41.63;;
20896;SDS011;10608;42.600;23.398;2023-04-29T12:58:16;91.00;;;87.30;;
20896;SDS011;10608;42.600;23.398;2023-04-29T13:00:41;60.50;;;58.03;;
20896;SDS011;10608;42.600;23.398;2023-04-29T13:03:06;65.03;;;62.40;;
20896;SDS011;10608;42.600;23.398;2023-04-29T13:05:32;119.43;;;114.63;;
20896;SDS011;10608;42.600;23.398;2023-04-29T13:07:57;80.30;;;76.90;;
20896;SDS011;10608;42.600;23.398;2023-04-29T13:10:22;74.17;;;71.07;;
20896;SDS011;10608;42.600;23.398;2023-04-29T13:12:48;29.87;;;28.67;;
20896;SDS011;10608;42.600;23.398;2023-04-29T13:15:13;57.77;;;55.43;;
20896;SDS011;10608;42.600;23.398;2023-04-29T13:17:39;18.57;;;17.87;;
20896;SDS011;10608;42.600;23.398;2023-04-29T13:20:05;23.63;;;22.63;;
20896;SDS011;10608;42.600;23.398;2023-04-29T13:22:31;36.47;;;35.00;;
20896;SDS011;10608;42.600;23.398;2023-04-29T13:24:57;16.83;;;16.13;;
20896;SDS011;10608;42.600;23.398;2023-04-29T13:27:22;32.90;;;31.57;;
20896;SDS011;10608;42.600;23.398;2023-04-29T13:29:47;30.10;;;28.87;;
20896;SDS011;10608;42.600;23.398;2023-04-29T13:32:13;26.67;;;25.60;;
20896;SDS011;10608;42.600;23.398;2023-04-29T13:34:39;22.90;;;21.97;;
20896;SDS011;10608;42.600;23.398;2023-04-29T13:37:07;15.87;;;15.27;;
20896;SDS011;10608;42.600;23.398;2023-04-29T13:39:32;23.17;;;22.27;;
20896;SDS011;10608;42.600;23.398;2023-04-29T13:41:58;30.93;;;29.67;;
20896;SDS011;10608;42.600;23.398;2023-04-29T13:44:23;26.80;;;25.67;;
20896;SDS011;10608;42.600;23.398;2023-04-29T13:46:48;29.90;;;28.70;;
20896;SDS011;10608;42.600;23.398;2023-04-29T13:49:15;24.30;;;23.30;;
20896;SDS011;10608;42.600;23.398;2023-04-29T13:51:41;9.40;;;9.00;;
20896;SDS011;10608;42.600;23.398;2023-04-29T13:54:06;9.83;;;9.43;;
20896;SDS011;10608;42.600;23.398;2023-04-29T13:56:31;11.80;;;11.33;;
20896;SDS011;10608;42.600;23.398;2023-04-29T13:58:57;41.43;;;39.73;;
20896;SDS011;10608;42.600;23.398;2023-04-29T14:01:22;35.70;;;34.27;;
20896;SDS011;10608;42.600;23.398;2023-04-29T14:03:48;12.63;;;12.13;;
20896;SDS011;10608;42.600;23.398;2023-04-29T14:06:13;14.67;;;14.07;;
20896;SDS011;10608;42.600;23.398;2023-04-29T14:08:38;13.70;;;13.17;;
20896;SDS011;10608;42.600;23.398;2023-04-29T14:11:04;11.87;;;11.37;;
20896;SDS011;10608;42.600;23.398;2023-04-29T14:13:29;15.80;;;15.20;;
20896;SDS011;10608;42.600;23.398;2023-04-29T14:15:54;17.73;;;17.03;;
20896;SDS011;10608;42.600;23.398;2023-04-29T14:18:20;11.03;;;10.63;;
20896;SDS011;10608;42.600;23.398;2023-04-29T14:20:45;10.53;;;10.13;;
20896;SDS011;10608;42.600;23.398;2023-04-29T14:23:11;18.80;;;18.03;;
20896;SDS011;10608;42.600;23.398;2023-04-29T14:25:36;22.67;;;21.77;;
20896;SDS011;10608;42.600;23.398;2023-04-29T14:28:01;20.20;;;19.33;;
20896;SDS011;10608;42.600;23.398;2023-04-29T14:30:26;15.70;;;15.10;;
20896;SDS011;10608;42.600;23.398;2023-04-29T14:32:52;15.03;;;14.43;;
20896;SDS011;10608;42.600;23.398;2023-04-29T14:35:17;20.33;;;19.53;;
20896;SDS011;10608;42.600;23.398;2023-04-29T14:37:42;24.40;;;23.40;;
20896;SDS011;10608;42.600;23.398;2023-04-29T14:40:08;23.93;;;23.00;;
20896;SDS011;10608;42.600;23.398;2023-04-29T14:42:33;22.40;;;21.50;;
20896;SDS011;10608;42.600;23.398;2023-04-29T14:44:58;23.13;;;22.20;;